sensor_id;sensor_type;location;lat;lon;timestamp;pressure;altitude;pressure_sealevel;temperature;humidity
22000;BME280;11164;48.818;2.322;2022-12-07T00:01:42;101157.28;;;4.59;51.94
22000;BME280;11164;48.818;2.322;2022-12-07T00:04:12;101155.31;;;4.61;52.10
22000;BME280;11164;48.818;2.322;2022-12-07T00:06:41;101160.81;;;4.40;52.30
22000;BME280;11164;48.818;2.322;2022-12-07T00:09:11;101163.09;;;4.35;53.02
22000;BME280;11164;48.818;2.322;2022-12-07T00:11:37;101158.88;;;4.32;52.97
22000;BME280;11164;48.818;2.322;2022-12-07T00:14:05;101159.88;;;4.51;52.55
22000;BME280;11164;48.818;2.322;2022-12-07T00:16:32;101157.56;;;4.56;52.36
22000;BME280;11164;48.818;2.322;2022-12-07T00:18:58;101146.91;;;4.56;52.14
22000;BME280;11164;48.818;2.322;2022-12-07T00:21:29;101154.69;;;4.49;52.32
22000;BME280;11164;48.818;2.322;2022-12-07T00:23:55;101143.84;;;4.51;52.48
22000;BME280;11164;48.818;2.322;2022-12-07T00:26:23;101147.34;;;4.41;52.57
22000;BME280;11164;48.818;2.322;2022-12-07T00:28:54;101146.50;;;4.31;52.84
22000;BME280;11164;48.818;2.322;2022-12-07T00:31:22;101153.13;;;4.46;52.57
22000;BME280;11164;48.818;2.322;2022-12-07T00:33:48;101138.09;;;4.36;52.58
22000;BME280;11164;48.818;2.322;2022-12-07T00:36:16;101149.59;;;4.36;52.76
22000;BME280;11164;48.818;2.322;2022-12-07T00:38:41;101148.78;;;4.26;53.32
22000;BME280;11164;48.818;2.322;2022-12-07T00:41:11;101144.13;;;4.38;52.54
22000;BME280;11164;48.818;2.322;2022-12-07T00:43:36;101140.47;;;4.48;52.59
22000;BME280;11164;48.818;2.322;2022-12-07T00:46:02;101143.50;;;4.63;52.38
22000;BME280;11164;48.818;2.322;2022-12-07T00:48:28;101143.38;;;4.65;52.37
22000;BME280;11164;48.818;2.322;2022-12-07T00:50:53;101140.97;;;4.72;52.62
22000;BME280;11164;48.818;2.322;2022-12-07T00:53:19;101137.06;;;4.56;53.13
22000;BME280;11164;48.818;2.322;2022-12-07T00:55:45;101136.63;;;4.61;52.63
22000;BME280;11164;48.818;2.322;2022-12-07T00:58:11;101135.97;;;4.49;53.21
22000;BME280;11164;48.818;2.322;2022-12-07T01:00:38;101120.78;;;4.50;53.15
22000;BME280;11164;48.818;2.322;2022-12-07T01:03:05;101131.00;;;4.64;53.03
22000;BME280;11164;48.818;2.322;2022-12-07T01:05:31;101130.13;;;4.73;52.70
22000;BME280;11164;48.818;2.322;2022-12-07T01:07:56;101128.97;;;4.76;52.71
22000;BME280;11164;48.818;2.322;2022-12-07T01:10:22;101127.47;;;4.73;53.02
22000;BME280;11164;48.818;2.322;2022-12-07T01:12:47;101127.41;;;4.83;52.39
22000;BME280;11164;48.818;2.322;2022-12-07T01:15:13;101127.66;;;4.90;52.52
22000;BME280;11164;48.818;2.322;2022-12-07T01:17:39;101129.94;;;4.84;53.01
22000;BME280;11164;48.818;2.322;2022-12-07T01:20:05;101123.94;;;4.73;53.17
22000;BME280;11164;48.818;2.322;2022-12-07T01:22:30;101132.88;;;4.81;52.94
22000;BME280;11164;48.818;2.322;2022-12-07T01:24:55;101123.81;;;4.64;53.12
22000;BME280;11164;48.818;2.322;2022-12-07T01:27:21;101128.59;;;4.61;53.01
22000;BME280;11164;48.818;2.322;2022-12-07T01:29:46;101127.25;;;4.37;53.65
22000;BME280;11164;48.818;2.322;2022-12-07T01:32:12;101127.69;;;4.42;54.00
22000;BME280;11164;48.818;2.322;2022-12-07T01:34:37;101123.47;;;4.50;53.64
22000;BME280;11164;48.818;2.322;2022-12-07T01:37:03;101119.22;;;4.57;53.23
22000;BME280;11164;48.818;2.322;2022-12-07T01:39:29;101124.13;;;4.61;53.45
22000;BME280;11164;48.818;2.322;2022-12-07T01:41:55;101120.31;;;4.64;53.33
22000;BME280;11164;48.818;2.322;2022-12-07T01:44:28;101120.56;;;4.71;53.67
22000;BME280;11164;48.818;2.322;2022-12-07T01:47:03;101119.13;;;4.76;53.25
22000;BME280;11164;48.818;2.322;2022-12-07T01:52:16;101122.56;;;4.59;53.22
22000;BME280;11164;48.818;2.322;2022-12-07T01:54:46;101116.31;;;4.40;53.71
22000;BME280;11164;48.818;2.322;2022-12-07T01:57:14;101119.13;;;4.19;54.29
22000;BME280;11164;48.818;2.322;2022-12-07T01:59:41;101108.59;;;4.27;53.38
22000;BME280;11164;48.818;2.322;2022-12-07T02:02:11;101111.00;;;4.21;53.41
22000;BME280;11164;48.818;2.322;2022-12-07T02:04:39;101114.41;;;4.03;54.01
22000;BME280;11164;48.818;2.322;2022-12-07T02:07:05;101117.66;;;3.97;54.24
22000;BME280;11164;48.818;2.322;2022-12-07T02:09:30;101114.41;;;4.03;54.31
22000;BME280;11164;48.818;2.322;2022-12-07T02:11:56;101114.13;;;4.16;53.19
22000;BME280;11164;48.818;2.322;2022-12-07T02:14:22;101104.16;;;3.79;54.25
22000;BME280;11164;48.818;2.322;2022-12-07T02:17:05;101113.59;;;3.83;54.21
22000;BME280;11164;48.818;2.322;2022-12-07T02:27:47;101115.25;;;3.94;53.71
22000;BME280;11164;48.818;2.322;2022-12-07T02:30:20;101111.63;;;3.85;53.94
22000;BME280;11164;48.818;2.322;2022-12-07T02:33:00;101109.22;;;3.92;53.57
22000;BME280;11164;48.818;2.322;2022-12-07T02:35:42;101111.91;;;3.92;53.54
22000;BME280;11164;48.818;2.322;2022-12-07T02:38:16;101109.06;;;4.03;53.21
22000;BME280;11164;48.818;2.322;2022-12-07T02:40:51;101108.78;;;3.97;53.21
22000;BME280;11164;48.818;2.322;2022-12-07T02:43:19;101110.91;;;3.93;52.79
22000;BME280;11164;48.818;2.322;2022-12-07T02:45:48;101113.88;;;3.90;52.30
22000;BME280;11164;48.818;2.322;2022-12-07T02:48:17;101100.25;;;3.83;52.76
22000;BME280;11164;48.818;2.322;2022-12-07T02:50:53;101112.31;;;3.97;52.74
22000;BME280;11164;48.818;2.322;2022-12-07T02:53:39;101107.66;;;4.09;53.17
22000;BME280;11164;48.818;2.322;2022-12-07T03:04:02;101104.88;;;3.91;53.04
22000;BME280;11164;48.818;2.322;2022-12-07T03:06:42;101104.03;;;3.90;52.74
22000;BME280;11164;48.818;2.322;2022-12-07T03:09:20;101099.66;;;4.09;52.13
22000;BME280;11164;48.818;2.322;2022-12-07T03:11:55;101100.34;;;4.11;52.23
22000;BME280;11164;48.818;2.322;2022-12-07T03:14:34;101101.88;;;4.14;52.66
22000;BME280;11164;48.818;2.322;2022-12-07T03:17:08;101090.94;;;4.17;52.09
22000;BME280;11164;48.818;2.322;2022-12-07T03:19:36;101092.75;;;4.16;52.23
22000;BME280;11164;48.818;2.322;2022-12-07T03:22:07;101083.53;;;4.01;52.47
22000;BME280;11164;48.818;2.322;2022-12-07T03:24:39;101095.03;;;3.91;52.16
22000;BME280;11164;48.818;2.322;2022-12-07T03:27:11;101078.78;;;3.75;52.89
22000;BME280;11164;48.818;2.322;2022-12-07T03:29:43;101081.59;;;3.73;52.98
22000;BME280;11164;48.818;2.322;2022-12-07T03:32:26;101080.03;;;3.90;52.63
22000;BME280;11164;48.818;2.322;2022-12-07T03:37:33;101072.44;;;3.86;52.61
22000;BME280;11164;48.818;2.322;2022-12-07T03:42:40;101075.81;;;3.88;52.03
22000;BME280;11164;48.818;2.322;2022-12-07T03:45:07;101062.03;;;3.92;52.14
22000;BME280;11164;48.818;2.322;2022-12-07T03:47:37;101062.88;;;3.93;52.56
22000;BME280;11164;48.818;2.322;2022-12-07T03:53:18;101072.97;;;4.09;52.01
22000;BME280;11164;48.818;2.322;2022-12-07T03:55:46;101070.59;;;3.96;52.38
22000;BME280;11164;48.818;2.322;2022-12-07T03:58:16;101069.09;;;3.84;52.52
22000;BME280;11164;48.818;2.322;2022-12-07T04:00:43;101064.16;;;3.89;52.31
22000;BME280;11164;48.818;2.322;2022-12-07T04:03:10;101060.06;;;3.95;52.47
22000;BME280;11164;48.818;2.322;2022-12-07T04:05:35;101053.63;;;3.97;52.16
22000;BME280;11164;48.818;2.322;2022-12-07T04:08:01;101059.94;;;3.96;51.99
22000;BME280;11164;48.818;2.322;2022-12-07T04:10:26;101079.56;;;4.05;51.82
22000;BME280;11164;48.818;2.322;2022-12-07T04:12:52;101068.19;;;4.03;51.95
22000;BME280;11164;48.818;2.322;2022-12-07T04:15:17;101073.53;;;4.13;52.00
22000;BME280;11164;48.818;2.322;2022-12-07T04:17:43;101060.28;;;4.21;51.75
22000;BME280;11164;48.818;2.322;2022-12-07T04:20:08;101067.44;;;4.30;51.82
22000;BME280;11164;48.818;2.322;2022-12-07T04:22:34;101062.66;;;4.24;51.97
22000;BME280;11164;48.818;2.322;2022-12-07T04:24:59;101060.94;;;4.33;51.95
22000;BME280;11164;48.818;2.322;2022-12-07T04:27:25;101062.19;;;4.38;51.96
22000;BME280;11164;48.818;2.322;2022-12-07T04:29:50;101065.16;;;4.45;52.18
22000;BME280;11164;48.818;2.322;2022-12-07T04:32:15;101059.81;;;4.45;51.73
22000;BME280;11164;48.818;2.322;2022-12-07T04:34:41;101064.09;;;4.56;51.89
22000;BME280;11164;48.818;2.322;2022-12-07T04:37:06;101050.69;;;4.47;51.90
22000;BME280;11164;48.818;2.322;2022-12-07T04:39:32;101063.56;;;4.52;51.80
22000;BME280;11164;48.818;2.322;2022-12-07T04:41:59;101062.94;;;4.30;52.28
22000;BME280;11164;48.818;2.322;2022-12-07T04:44:25;101065.28;;;4.43;52.26
22000;BME280;11164;48.818;2.322;2022-12-07T04:46:52;101068.66;;;4.36;52.63
22000;BME280;11164;48.818;2.322;2022-12-07T04:49:17;101065.75;;;4.29;53.00
22000;BME280;11164;48.818;2.322;2022-12-07T04:51:43;101075.25;;;4.41;52.73
22000;BME280;11164;48.818;2.322;2022-12-07T04:54:09;101055.31;;;4.36;52.49
22000;BME280;11164;48.818;2.322;2022-12-07T04:56:35;101061.53;;;4.26;53.33
22000;BME280;11164;48.818;2.322;2022-12-07T04:59:02;101054.50;;;4.25;52.96
22000;BME280;11164;48.818;2.322;2022-12-07T05:01:28;101066.63;;;4.10;53.08
22000;BME280;11164;48.818;2.322;2022-12-07T05:03:53;101056.66;;;4.12;53.38
22000;BME280;11164;48.818;2.322;2022-12-07T05:06:19;101054.72;;;3.95;53.42
22000;BME280;11164;48.818;2.322;2022-12-07T05:08:44;101057.41;;;3.95;53.52
22000;BME280;11164;48.818;2.322;2022-12-07T05:11:10;101048.09;;;4.08;53.21
22000;BME280;11164;48.818;2.322;2022-12-07T05:13:55;101048.66;;;4.12;53.45
22000;BME280;11164;48.818;2.322;2022-12-07T05:16:21;101054.94;;;4.21;52.55
22000;BME280;11164;48.818;2.322;2022-12-07T05:18:46;101052.25;;;4.30;52.68
22000;BME280;11164;48.818;2.322;2022-12-07T05:21:12;101063.47;;;4.44;52.64
22000;BME280;11164;48.818;2.322;2022-12-07T05:23:37;101053.75;;;4.53;52.24
22000;BME280;11164;48.818;2.322;2022-12-07T05:26:02;101066.34;;;4.60;51.94
22000;BME280;11164;48.818;2.322;2022-12-07T05:28:28;101059.47;;;4.58;52.06
22000;BME280;11164;48.818;2.322;2022-12-07T05:30:53;101059.28;;;4.69;52.53
22000;BME280;11164;48.818;2.322;2022-12-07T05:33:18;101061.69;;;4.62;52.03
22000;BME280;11164;48.818;2.322;2022-12-07T05:35:44;101070.31;;;4.56;52.69
22000;BME280;11164;48.818;2.322;2022-12-07T05:38:09;101069.50;;;4.46;52.90
22000;BME280;11164;48.818;2.322;2022-12-07T05:40:36;101081.03;;;4.46;52.69
22000;BME280;11164;48.818;2.322;2022-12-07T05:43:02;101067.03;;;4.62;52.55
22000;BME280;11164;48.818;2.322;2022-12-07T05:45:27;101068.69;;;4.73;52.39
22000;BME280;11164;48.818;2.322;2022-12-07T05:47:52;101072.31;;;4.82;52.58
22000;BME280;11164;48.818;2.322;2022-12-07T05:50:18;101070.75;;;4.79;52.33
22000;BME280;11164;48.818;2.322;2022-12-07T05:52:43;101071.72;;;4.78;52.38
22000;BME280;11164;48.818;2.322;2022-12-07T05:55:08;101067.94;;;4.81;52.12
22000;BME280;11164;48.818;2.322;2022-12-07T05:57:34;101076.38;;;4.76;52.65
22000;BME280;11164;48.818;2.322;2022-12-07T05:59:59;101067.25;;;4.79;52.53
22000;BME280;11164;48.818;2.322;2022-12-07T06:02:24;101060.47;;;4.84;52.26
22000;BME280;11164;48.818;2.322;2022-12-07T06:04:50;101063.28;;;4.83;52.25
22000;BME280;11164;48.818;2.322;2022-12-07T06:07:16;101059.00;;;4.90;52.58
22000;BME280;11164;48.818;2.322;2022-12-07T06:09:42;101057.13;;;5.00;52.19
22000;BME280;11164;48.818;2.322;2022-12-07T06:12:12;101063.97;;;4.85;51.94
22000;BME280;11164;48.818;2.322;2022-12-07T06:14:57;101064.72;;;4.77;52.24
22000;BME280;11164;48.818;2.322;2022-12-07T06:17:22;101064.22;;;4.64;52.58
22000;BME280;11164;48.818;2.322;2022-12-07T06:19:48;101066.41;;;4.51;53.10
22000;BME280;11164;48.818;2.322;2022-12-07T06:22:13;101062.19;;;4.38;52.89
22000;BME280;11164;48.818;2.322;2022-12-07T06:24:39;101060.66;;;4.36;53.33
22000;BME280;11164;48.818;2.322;2022-12-07T06:27:05;101055.03;;;4.39;52.74
22000;BME280;11164;48.818;2.322;2022-12-07T06:29:31;101053.59;;;4.54;52.70
22000;BME280;11164;48.818;2.322;2022-12-07T06:31:56;101059.50;;;4.48;53.16
22000;BME280;11164;48.818;2.322;2022-12-07T06:34:23;101058.13;;;4.34;53.12
22000;BME280;11164;48.818;2.322;2022-12-07T06:36:49;101053.78;;;4.43;52.60
22000;BME280;11164;48.818;2.322;2022-12-07T06:39:22;101062.72;;;4.42;53.39
22000;BME280;11164;48.818;2.322;2022-12-07T06:41:48;101060.59;;;4.55;53.26
22000;BME280;11164;48.818;2.322;2022-12-07T06:44:14;101066.44;;;4.69;53.18
22000;BME280;11164;48.818;2.322;2022-12-07T06:46:39;101070.09;;;4.67;52.88
22000;BME280;11164;48.818;2.322;2022-12-07T06:49:05;101070.34;;;4.74;53.00
22000;BME280;11164;48.818;2.322;2022-12-07T06:51:31;101069.06;;;4.78;52.61
22000;BME280;11164;48.818;2.322;2022-12-07T06:53:57;101070.97;;;4.68;52.96
22000;BME280;11164;48.818;2.322;2022-12-07T06:56:22;101065.94;;;4.55;53.13
22000;BME280;11164;48.818;2.322;2022-12-07T06:58:48;101075.97;;;4.71;53.43
22000;BME280;11164;48.818;2.322;2022-12-07T07:01:16;101073.66;;;4.86;52.72
22000;BME280;11164;48.818;2.322;2022-12-07T07:03:42;101077.31;;;4.85;53.17
22000;BME280;11164;48.818;2.322;2022-12-07T07:06:08;101073.78;;;4.66;53.61
22000;BME280;11164;48.818;2.322;2022-12-07T07:08:34;101068.19;;;4.60;53.56
22000;BME280;11164;48.818;2.322;2022-12-07T07:11:00;101072.31;;;4.82;53.43
22000;BME280;11164;48.818;2.322;2022-12-07T07:13:26;101074.06;;;4.91;52.77
22000;BME280;11164;48.818;2.322;2022-12-07T07:15:52;101069.91;;;4.79;53.04
22000;BME280;11164;48.818;2.322;2022-12-07T07:18:17;101075.50;;;4.85;53.26
22000;BME280;11164;48.818;2.322;2022-12-07T07:20:43;101069.25;;;4.95;52.81
22000;BME280;11164;48.818;2.322;2022-12-07T07:23:08;101055.66;;;4.88;52.63
22000;BME280;11164;48.818;2.322;2022-12-07T07:25:34;101069.13;;;4.96;52.76
22000;BME280;11164;48.818;2.322;2022-12-07T07:27:59;101057.50;;;5.05;52.43
22000;BME280;11164;48.818;2.322;2022-12-07T07:30:25;101070.88;;;5.05;52.43
22000;BME280;11164;48.818;2.322;2022-12-07T07:32:51;101069.91;;;5.07;52.72
22000;BME280;11164;48.818;2.322;2022-12-07T07:35:16;101077.16;;;5.14;52.50
22000;BME280;11164;48.818;2.322;2022-12-07T07:37:42;101068.78;;;5.27;52.26
22000;BME280;11164;48.818;2.322;2022-12-07T07:40:09;101062.31;;;5.02;52.73
22000;BME280;11164;48.818;2.322;2022-12-07T07:42:35;101072.19;;;5.01;52.81
22000;BME280;11164;48.818;2.322;2022-12-07T07:45:00;101069.78;;;4.80;53.06
22000;BME280;11164;48.818;2.322;2022-12-07T07:47:25;101054.19;;;4.76;53.35
22000;BME280;11164;48.818;2.322;2022-12-07T07:49:51;101066.19;;;4.62;53.71
22000;BME280;11164;48.818;2.322;2022-12-07T07:52:16;101078.22;;;4.76;53.29
22000;BME280;11164;48.818;2.322;2022-12-07T07:54:41;101067.81;;;4.73;53.00
22000;BME280;11164;48.818;2.322;2022-12-07T07:57:07;101073.25;;;4.63;53.15
22000;BME280;11164;48.818;2.322;2022-12-07T07:59:32;101078.19;;;4.85;53.25
22000;BME280;11164;48.818;2.322;2022-12-07T08:01:58;101076.59;;;4.93;52.70
22000;BME280;11164;48.818;2.322;2022-12-07T08:04:23;101088.06;;;4.75;52.89
22000;BME280;11164;48.818;2.322;2022-12-07T08:06:48;101085.97;;;4.97;53.00
22000;BME280;11164;48.818;2.322;2022-12-07T08:09:14;101080.72;;;5.05;52.65
22000;BME280;11164;48.818;2.322;2022-12-07T08:11:39;101075.00;;;5.18;52.82
22000;BME280;11164;48.818;2.322;2022-12-07T08:14:05;101074.19;;;5.17;52.54
22000;BME280;11164;48.818;2.322;2022-12-07T08:16:30;101070.13;;;5.31;52.41
22000;BME280;11164;48.818;2.322;2022-12-07T08:18:55;101085.25;;;5.22;52.71
22000;BME280;11164;48.818;2.322;2022-12-07T08:21:21;101070.06;;;5.23;52.61
22000;BME280;11164;48.818;2.322;2022-12-07T08:23:46;101089.94;;;4.93;53.25
22000;BME280;11164;48.818;2.322;2022-12-07T08:26:14;101085.84;;;4.98;53.49
22000;BME280;11164;48.818;2.322;2022-12-07T08:28:41;101081.66;;;5.14;53.29
22000;BME280;11164;48.818;2.322;2022-12-07T08:31:09;101082.41;;;5.06;53.45
22000;BME280;11164;48.818;2.322;2022-12-07T08:33:36;101092.22;;;5.33;52.65
22000;BME280;11164;48.818;2.322;2022-12-07T08:36:03;101092.44;;;5.58;52.61
22000;BME280;11164;48.818;2.322;2022-12-07T08:38:30;101096.72;;;5.51;52.50
22000;BME280;11164;48.818;2.322;2022-12-07T08:40:56;101093.59;;;5.37;52.85
22000;BME280;11164;48.818;2.322;2022-12-07T08:43:22;101098.63;;;5.40;52.84
22000;BME280;11164;48.818;2.322;2022-12-07T08:48:26;101097.69;;;5.14;53.40
22000;BME280;11164;48.818;2.322;2022-12-07T08:50:51;101095.34;;;5.47;53.01
22000;BME280;11164;48.818;2.322;2022-12-07T08:53:17;101100.09;;;5.35;53.33
22000;BME280;11164;48.818;2.322;2022-12-07T08:55:44;101100.03;;;5.45;52.98
22000;BME280;11164;48.818;2.322;2022-12-07T08:58:10;101096.34;;;5.46;53.18
22000;BME280;11164;48.818;2.322;2022-12-07T09:00:35;101092.66;;;5.29;53.23
22000;BME280;11164;48.818;2.322;2022-12-07T09:03:01;101096.44;;;5.36;53.27
22000;BME280;11164;48.818;2.322;2022-12-07T09:05:26;101094.28;;;5.39;53.64
22000;BME280;11164;48.818;2.322;2022-12-07T09:07:55;101094.06;;;5.33;53.64
22000;BME280;11164;48.818;2.322;2022-12-07T09:10:22;101092.84;;;5.45;53.53
22000;BME280;11164;48.818;2.322;2022-12-07T09:12:48;101096.72;;;5.51;53.56
22000;BME280;11164;48.818;2.322;2022-12-07T09:15:14;101100.38;;;5.68;53.16
22000;BME280;11164;48.818;2.322;2022-12-07T09:17:39;101107.19;;;5.80;53.04
22000;BME280;11164;48.818;2.322;2022-12-07T09:20:05;101093.81;;;5.80;52.73
22000;BME280;11164;48.818;2.322;2022-12-07T09:22:31;101103.63;;;5.97;52.47
22000;BME280;11164;48.818;2.322;2022-12-07T09:24:58;101105.28;;;6.16;52.40
22000;BME280;11164;48.818;2.322;2022-12-07T09:27:24;101092.56;;;6.18;52.28
22000;BME280;11164;48.818;2.322;2022-12-07T09:29:49;101104.13;;;6.19;52.28
22000;BME280;11164;48.818;2.322;2022-12-07T09:32:15;101106.47;;;6.22;52.57
22000;BME280;11164;48.818;2.322;2022-12-07T09:34:40;101103.81;;;6.22;52.46
22000;BME280;11164;48.818;2.322;2022-12-07T09:37:06;101104.25;;;6.35;52.39
22000;BME280;11164;48.818;2.322;2022-12-07T09:39:32;101099.97;;;6.25;52.77
22000;BME280;11164;48.818;2.322;2022-12-07T09:41:58;101101.84;;;6.24;52.74
22000;BME280;11164;48.818;2.322;2022-12-07T09:44:26;101096.28;;;6.44;52.32
22000;BME280;11164;48.818;2.322;2022-12-07T09:46:53;101098.50;;;6.30;52.33
22000;BME280;11164;48.818;2.322;2022-12-07T09:49:23;101093.34;;;6.63;52.28
22000;BME280;11164;48.818;2.322;2022-12-07T09:52:00;101096.59;;;6.75;51.55
22000;BME280;11164;48.818;2.322;2022-12-07T09:54:28;101093.66;;;6.52;52.37
22000;BME280;11164;48.818;2.322;2022-12-07T09:56:54;101088.50;;;6.67;51.94
22000;BME280;11164;48.818;2.322;2022-12-07T09:59:20;101082.19;;;6.76;51.73
22000;BME280;11164;48.818;2.322;2022-12-07T10:01:49;101085.41;;;6.88;52.31
22000;BME280;11164;48.818;2.322;2022-12-07T10:04:23;101082.63;;;7.14;51.51
22000;BME280;11164;48.818;2.322;2022-12-07T10:06:50;101076.13;;;7.25;51.73
22000;BME280;11164;48.818;2.322;2022-12-07T10:09:20;101077.81;;;7.50;51.50
22000;BME280;11164;48.818;2.322;2022-12-07T10:12:10;101074.66;;;7.63;50.15
22000;BME280;11164;48.818;2.322;2022-12-07T10:15:04;101072.97;;;7.71;50.64
22000;BME280;11164;48.818;2.322;2022-12-07T10:17:36;101065.44;;;7.82;51.57
22000;BME280;11164;48.818;2.322;2022-12-07T10:20:22;101070.13;;;7.72;51.27
22000;BME280;11164;48.818;2.322;2022-12-07T10:23:01;101070.44;;;7.53;51.88
22000;BME280;11164;48.818;2.322;2022-12-07T10:25:30;101073.13;;;7.53;51.90
22000;BME280;11164;48.818;2.322;2022-12-07T10:30:46;101060.38;;;7.22;51.09
22000;BME280;11164;48.818;2.322;2022-12-07T10:38:53;101047.66;;;7.98;49.88
22000;BME280;11164;48.818;2.322;2022-12-07T10:41:18;101045.88;;;8.38;50.59
22000;BME280;11164;48.818;2.322;2022-12-07T10:43:50;101050.84;;;8.57;50.58
22000;BME280;11164;48.818;2.322;2022-12-07T10:46:29;101045.50;;;8.49;49.32
22000;BME280;11164;48.818;2.322;2022-12-07T10:54:44;101022.50;;;9.09;50.45
22000;BME280;11164;48.818;2.322;2022-12-07T11:13:43;101002.16;;;7.80;51.49
22000;BME280;11164;48.818;2.322;2022-12-07T11:16:21;100996.47;;;7.83;51.42
22000;BME280;11164;48.818;2.322;2022-12-07T11:21:49;100991.09;;;7.66;51.36
22000;BME280;11164;48.818;2.322;2022-12-07T11:24:25;100994.34;;;7.37;52.04
22000;BME280;11164;48.818;2.322;2022-12-07T11:37:36;100965.19;;;8.15;50.52
22000;BME280;11164;48.818;2.322;2022-12-07T11:40:11;100958.97;;;8.22;50.36
22000;BME280;11164;48.818;2.322;2022-12-07T11:42:44;100964.97;;;8.33;49.89
22000;BME280;11164;48.818;2.322;2022-12-07T11:45:15;100960.72;;;8.38;50.19
22000;BME280;11164;48.818;2.322;2022-12-07T11:47:58;100958.41;;;8.27;50.00
22000;BME280;11164;48.818;2.322;2022-12-07T11:50:44;100948.09;;;8.47;50.12
22000;BME280;11164;48.818;2.322;2022-12-07T11:53:21;100955.69;;;8.67;49.30
22000;BME280;11164;48.818;2.322;2022-12-07T11:55:54;100944.16;;;8.81;49.63
22000;BME280;11164;48.818;2.322;2022-12-07T12:04:21;100933.78;;;9.01;49.58
22000;BME280;11164;48.818;2.322;2022-12-07T12:06:43;100934.97;;;8.75;50.08
22000;BME280;11164;48.818;2.322;2022-12-07T12:09:29;100916.63;;;8.79;49.56
22000;BME280;11164;48.818;2.322;2022-12-07T12:22:39;100919.75;;;9.52;49.29
22000;BME280;11164;48.818;2.322;2022-12-07T12:25:23;100919.28;;;9.48;49.00
22000;BME280;11164;48.818;2.322;2022-12-07T12:27:50;100914.06;;;9.47;49.57
22000;BME280;11164;48.818;2.322;2022-12-07T12:30:33;100919.50;;;9.62;46.28
22000;BME280;11164;48.818;2.322;2022-12-07T12:33:13;100916.69;;;9.55;49.00
22000;BME280;11164;48.818;2.322;2022-12-07T12:35:40;100920.69;;;9.59;49.58
22000;BME280;11164;48.818;2.322;2022-12-07T12:38:30;100916.78;;;9.62;47.93
22000;BME280;11164;48.818;2.322;2022-12-07T12:40:56;100916.28;;;9.43;49.70
22000;BME280;11164;48.818;2.322;2022-12-07T12:43:41;100909.41;;;9.03;49.54
22000;BME280;11164;48.818;2.322;2022-12-07T12:51:54;100897.34;;;8.98;50.10
22000;BME280;11164;48.818;2.322;2022-12-07T12:54:35;100897.06;;;8.93;50.12
22000;BME280;11164;48.818;2.322;2022-12-07T12:57:25;100890.28;;;8.97;48.24
22000;BME280;11164;48.818;2.322;2022-12-07T13:04:54;100878.53;;;8.75;49.90
22000;BME280;11164;48.818;2.322;2022-12-07T13:26:22;100867.66;;;9.07;49.12
22000;BME280;11164;48.818;2.322;2022-12-07T13:31:35;100858.44;;;8.63;50.00
22000;BME280;11164;48.818;2.322;2022-12-07T13:34:02;100866.19;;;8.81;46.54
22000;BME280;11164;48.818;2.322;2022-12-07T13:36:54;100851.34;;;8.70;48.99
22000;BME280;11164;48.818;2.322;2022-12-07T13:39:24;100850.63;;;8.76;49.80
22000;BME280;11164;48.818;2.322;2022-12-07T13:41:55;100855.09;;;9.07;49.30
22000;BME280;11164;48.818;2.322;2022-12-07T13:44:23;100852.28;;;9.39;49.03
22000;BME280;11164;48.818;2.322;2022-12-07T13:47:17;100851.06;;;9.56;47.17
22000;BME280;11164;48.818;2.322;2022-12-07T13:49:52;100845.50;;;9.43;48.62
22000;BME280;11164;48.818;2.322;2022-12-07T13:55:06;100834.97;;;9.18;48.89
22000;BME280;11164;48.818;2.322;2022-12-07T13:57:38;100825.56;;;8.99;49.90
22000;BME280;11164;48.818;2.322;2022-12-07T14:00:06;100832.97;;;8.97;49.44
22000;BME280;11164;48.818;2.322;2022-12-07T14:02:53;100831.16;;;8.74;46.76
22000;BME280;11164;48.818;2.322;2022-12-07T14:05:34;100828.94;;;8.55;49.96
22000;BME280;11164;48.818;2.322;2022-12-07T14:13:31;100817.78;;;9.04;48.73
22000;BME280;11164;48.818;2.322;2022-12-07T14:15:57;100810.66;;;9.26;48.81
22000;BME280;11164;48.818;2.322;2022-12-07T14:21:04;100814.13;;;8.82;49.51
22000;BME280;11164;48.818;2.322;2022-12-07T14:23:30;100813.75;;;8.85;48.96
22000;BME280;11164;48.818;2.322;2022-12-07T14:26:07;100807.63;;;8.91;48.98
22000;BME280;11164;48.818;2.322;2022-12-07T14:28:35;100812.41;;;9.19;48.85
22000;BME280;11164;48.818;2.322;2022-12-07T14:31:01;100815.19;;;9.26;48.82
22000;BME280;11164;48.818;2.322;2022-12-07T14:33:28;100820.53;;;8.96;49.43
22000;BME280;11164;48.818;2.322;2022-12-07T14:35:54;100816.38;;;8.70;49.46
22000;BME280;11164;48.818;2.322;2022-12-07T14:38:21;100813.97;;;8.98;49.60
22000;BME280;11164;48.818;2.322;2022-12-07T14:40:47;100812.91;;;9.37;48.59
22000;BME280;11164;48.818;2.322;2022-12-07T14:43:15;100810.59;;;9.34;49.18
22000;BME280;11164;48.818;2.322;2022-12-07T14:45:41;100808.00;;;9.41;48.99
22000;BME280;11164;48.818;2.322;2022-12-07T14:48:11;100807.59;;;9.59;48.82
22000;BME280;11164;48.818;2.322;2022-12-07T14:50:41;100802.34;;;8.98;49.99
22000;BME280;11164;48.818;2.322;2022-12-07T14:53:15;100802.84;;;9.16;49.54
22000;BME280;11164;48.818;2.322;2022-12-07T14:55:41;100796.69;;;9.46;49.18
22000;BME280;11164;48.818;2.322;2022-12-07T14:58:13;100798.25;;;9.40;48.62
22000;BME280;11164;48.818;2.322;2022-12-07T15:00:39;100801.06;;;9.09;49.99
22000;BME280;11164;48.818;2.322;2022-12-07T15:03:04;100790.88;;;9.19;49.68
22000;BME280;11164;48.818;2.322;2022-12-07T15:05:30;100793.22;;;9.22;49.67
22000;BME280;11164;48.818;2.322;2022-12-07T15:07:55;100792.13;;;9.46;49.73
22000;BME280;11164;48.818;2.322;2022-12-07T15:10:24;100786.88;;;9.74;49.03
22000;BME280;11164;48.818;2.322;2022-12-07T15:12:55;100770.41;;;9.63;49.07
22000;BME280;11164;48.818;2.322;2022-12-07T15:15:20;100788.19;;;9.04;49.66
22000;BME280;11164;48.818;2.322;2022-12-07T15:17:45;100788.72;;;8.99;49.68
22000;BME280;11164;48.818;2.322;2022-12-07T15:20:14;100784.09;;;8.93;49.64
22000;BME280;11164;48.818;2.322;2022-12-07T15:22:41;100782.00;;;8.66;49.57